createdAt,value
2019-05-19T00:01:04.189Z,14.69
2019-05-19T00:03:53.168Z,14.69
2019-05-19T00:06:42.026Z,14.62
2019-05-19T00:09:30.877Z,14.52
2019-05-19T00:12:19.823Z,14.37
2019-05-19T00:15:08.908Z,14.28
2019-05-19T00:17:57.831Z,14.23
2019-05-19T00:20:46.659Z,14.18
2019-05-19T00:23:35.509Z,14.30
2019-05-19T00:26:24.341Z,14.24
2019-05-19T00:29:06.319Z,14.32
2019-05-19T00:31:35.841Z,14.08
2019-05-19T00:34:24.707Z,13.97
2019-05-19T00:37:13.572Z,13.97
2019-05-19T00:40:02.411Z,13.90
2019-05-19T00:42:51.268Z,13.91
2019-05-19T00:45:40.184Z,13.80
2019-05-19T00:48:29.129Z,13.71
2019-05-19T00:51:18.033Z,13.67
2019-05-19T00:54:06.944Z,13.62
2019-05-19T01:00:24.139Z,13.50
2019-05-19T01:03:12.990Z,13.44
2019-05-19T01:06:01.882Z,13.48
2019-05-19T01:08:50.720Z,13.42
2019-05-19T01:11:39.656Z,13.40
2019-05-19T01:14:28.489Z,13.35
2019-05-19T01:17:17.420Z,13.30
2019-05-19T01:20:07.096Z,13.32
2019-05-19T01:22:55.965Z,13.27
2019-05-19T01:25:44.849Z,13.27
2019-05-19T01:28:33.700Z,13.21
2019-05-19T01:31:15.174Z,13.15
2019-05-19T01:37:19.140Z,13.01
2019-05-19T01:40:08.625Z,12.94
2019-05-19T01:42:57.845Z,12.92
2019-05-19T01:45:46.744Z,12.88
2019-05-19T01:48:35.667Z,12.91
2019-05-19T01:51:24.509Z,12.91
2019-05-19T01:54:16.646Z,12.90
2019-05-19T01:57:03.921Z,12.82
2019-05-19T01:59:52.850Z,12.80
2019-05-19T02:02:41.754Z,12.78
2019-05-19T02:05:30.623Z,12.75
2019-05-19T02:08:19.466Z,12.73
2019-05-19T02:14:03.002Z,12.72
2019-05-19T02:16:51.866Z,12.73
2019-05-19T02:19:40.707Z,12.74
2019-05-19T02:22:29.651Z,12.70
2019-05-19T02:28:33.241Z,12.95
2019-05-19T02:31:15.169Z,13.16
2019-05-19T02:34:04.026Z,13.22
2019-05-19T02:36:52.927Z,13.24
2019-05-19T02:39:41.796Z,13.18
2019-05-19T02:46:19.849Z,12.86
2019-05-19T02:55:34.228Z,12.77
2019-05-19T03:02:10.410Z,12.52
2019-05-19T03:04:59.323Z,12.51
2019-05-19T03:07:48.260Z,12.47
2019-05-19T03:10:37.123Z,12.41
2019-05-19T03:13:26.062Z,12.34
2019-05-19T03:16:14.877Z,12.30
2019-05-19T03:19:03.812Z,12.31
2019-05-19T03:21:52.709Z,12.23
2019-05-19T03:24:41.562Z,12.14
2019-05-19T03:27:30.411Z,12.12
2019-05-19T03:30:31.742Z,12.11
2019-05-19T03:33:39.637Z,12.05
2019-05-19T03:36:28.464Z,12.09
2019-05-19T03:39:17.313Z,12.26
2019-05-19T03:42:10.222Z,12.32
2019-05-19T03:44:56.807Z,12.29
2019-05-19T03:47:45.746Z,12.23
2019-05-19T03:50:34.577Z,12.19
2019-05-19T03:53:23.415Z,12.17
2019-05-19T03:56:12.491Z,12.14
2019-05-19T03:59:01.339Z,12.12
2019-05-19T04:01:50.187Z,12.11
2019-05-19T04:04:39.109Z,12.11
2019-05-19T04:07:27.938Z,12.11
2019-05-19T04:10:16.967Z,12.12
2019-05-19T04:13:05.828Z,12.13
2019-05-19T04:15:54.663Z,12.10
2019-05-19T04:18:43.520Z,12.09
2019-05-19T04:21:47.675Z,12.11
2019-05-19T04:24:22.928Z,12.10
2019-05-19T04:27:11.848Z,12.17
2019-05-19T04:30:00.700Z,12.17
2019-05-19T04:32:42.238Z,12.21
2019-05-19T04:35:31.242Z,12.22
2019-05-19T04:38:20.174Z,12.23
2019-05-19T04:41:09.167Z,12.29
2019-05-19T04:43:58.027Z,12.33
2019-05-19T04:46:46.947Z,12.31
2019-05-19T04:49:35.766Z,12.36
2019-05-19T04:52:24.694Z,12.46
2019-05-19T04:55:13.584Z,12.48
2019-05-19T04:58:02.511Z,12.50
2019-05-19T05:00:51.351Z,12.65
2019-05-19T05:03:40.238Z,12.73
2019-05-19T05:06:29.074Z,12.88
2019-05-19T05:09:17.931Z,13.06
2019-05-19T05:12:06.879Z,13.17
2019-05-19T05:14:55.720Z,13.46
2019-05-19T05:17:44.679Z,13.67
2019-05-19T05:20:33.611Z,13.80
2019-05-19T05:23:22.450Z,14.07
2019-05-19T05:26:11.297Z,14.08
2019-05-19T05:29:00.125Z,14.63
2019-05-19T05:31:41.502Z,14.55
2019-05-19T05:34:30.366Z,14.80
2019-05-19T05:37:19.247Z,15.07
2019-05-19T05:40:08.479Z,15.36
2019-05-19T05:42:57.329Z,15.56
2019-05-19T05:45:46.157Z,15.49
2019-05-19T05:48:35.002Z,15.79
2019-05-19T05:51:23.837Z,15.98
2019-05-19T05:54:12.769Z,15.92
2019-05-19T05:57:01.622Z,16.05
2019-05-19T05:59:50.487Z,16.16
2019-05-19T06:02:39.314Z,16.39
2019-05-19T06:05:28.192Z,16.51
2019-05-19T06:08:17.021Z,16.56
2019-05-19T06:11:05.899Z,16.21
2019-05-19T06:13:54.727Z,16.41
2019-05-19T06:16:43.592Z,15.98
2019-05-19T06:19:32.452Z,16.09
2019-05-19T06:22:21.292Z,16.02
2019-05-19T06:28:25.459Z,16.38
2019-05-19T06:31:06.916Z,16.39
2019-05-19T06:33:55.782Z,16.39
2019-05-19T06:36:44.610Z,16.72
2019-05-19T06:39:33.466Z,17.14
2019-05-19T06:42:22.315Z,16.80
2019-05-19T06:48:25.698Z,16.87
2019-05-19T06:51:14.601Z,17.22
2019-05-19T06:54:03.461Z,17.23
2019-05-19T06:56:52.454Z,17.42
2019-05-19T06:59:41.302Z,17.52
2019-05-19T07:02:30.172Z,17.96
2019-05-19T07:05:19.135Z,17.99
2019-05-19T07:08:08.142Z,17.79
2019-05-19T07:10:56.995Z,17.95
2019-05-19T07:13:45.936Z,18.38
2019-05-19T07:16:34.796Z,18.69
2019-05-19T07:19:23.752Z,18.46
2019-05-19T07:22:12.623Z,18.85
2019-05-19T07:25:01.584Z,19.16
2019-05-19T07:27:50.463Z,18.81
2019-05-19T07:30:39.476Z,18.64
2019-05-19T07:33:20.869Z,18.68
2019-05-19T07:36:09.744Z,19.03
2019-05-19T07:38:58.590Z,20.20
2019-05-19T07:41:47.435Z,20.28
2019-05-19T07:44:36.329Z,20.11
2019-05-19T07:47:25.247Z,20.68
2019-05-19T07:50:14.048Z,20.98
2019-05-19T07:53:02.915Z,21.14
2019-05-19T07:55:51.820Z,21.02
2019-05-19T07:58:40.772Z,20.79
2019-05-19T08:01:29.671Z,20.71
2019-05-19T08:04:18.532Z,21.29
2019-05-19T08:06:48.117Z,21.79
2019-05-19T08:09:36.958Z,21.66
2019-05-19T08:12:25.878Z,21.24
2019-05-19T08:15:14.702Z,21.50
2019-05-19T08:18:03.615Z,22.24
2019-05-19T08:20:52.520Z,21.85
2019-05-19T08:23:41.390Z,21.40
2019-05-19T08:26:30.315Z,21.12
2019-05-19T08:29:19.164Z,21.42
2019-05-19T08:32:01.412Z,21.08
2019-05-19T08:34:50.277Z,21.67
2019-05-19T08:37:39.124Z,23.19
2019-05-19T08:40:27.949Z,22.53
2019-05-19T08:43:16.790Z,22.41
2019-05-19T08:46:05.630Z,22.24
2019-05-19T08:48:54.548Z,21.47
2019-05-19T08:51:43.374Z,22.50
2019-05-19T08:54:32.229Z,23.36
2019-05-19T08:57:21.057Z,24.06
2019-05-19T09:00:10.217Z,23.90
2019-05-19T09:02:59.030Z,24.08
2019-05-19T09:05:48.082Z,25.62
2019-05-19T09:08:36.878Z,24.14
2019-05-19T09:11:25.738Z,25.89
2019-05-19T09:14:14.577Z,27.24
2019-05-19T09:16:44.092Z,25.58
2019-05-19T09:19:32.987Z,25.62
2019-05-19T09:22:21.852Z,27.09
2019-05-19T09:28:25.244Z,27.82
2019-05-19T09:31:14.121Z,28.13
2019-05-19T09:33:55.506Z,27.30
2019-05-19T09:36:44.354Z,26.73
2019-05-19T09:39:33.211Z,27.49
2019-05-19T09:42:22.050Z,26.75
2019-05-19T09:48:39.326Z,26.77
2019-05-19T09:51:28.180Z,29.50
2019-05-19T09:54:17.026Z,28.38
2019-05-19T09:57:06.148Z,29.03
2019-05-19T09:59:55.020Z,27.67
2019-05-19T10:02:43.856Z,28.09
2019-05-19T10:05:32.699Z,29.26
2019-05-19T10:08:41.434Z,28.86
2019-05-19T10:12:08.964Z,28.65
2019-05-19T10:14:57.917Z,28.62
2019-05-19T10:17:46.804Z,26.71
2019-05-19T10:20:35.650Z,26.09
2019-05-19T10:23:24.486Z,27.75
2019-05-19T10:26:13.335Z,27.18
2019-05-19T10:32:11.016Z,28.01
2019-05-19T10:34:52.880Z,27.83
2019-05-19T10:37:41.722Z,28.67
2019-05-19T10:40:30.558Z,28.45
2019-05-19T10:43:19.401Z,28.20
2019-05-19T10:46:08.297Z,27.76
2019-05-19T10:48:57.231Z,27.94
2019-05-19T10:51:46.100Z,26.30
2019-05-19T10:54:34.929Z,27.14
2019-05-19T10:57:23.786Z,28.24
2019-05-19T11:00:12.694Z,28.51
2019-05-19T11:03:01.560Z,30.43
2019-05-19T11:05:50.375Z,29.40
2019-05-19T11:08:39.260Z,29.31
2019-05-19T11:11:28.083Z,31.15
2019-05-19T11:14:16.937Z,30.08
2019-05-19T11:17:05.842Z,31.26
2019-05-19T11:19:54.700Z,30.26
2019-05-19T11:22:43.583Z,31.74
2019-05-19T11:25:34.344Z,31.44
2019-05-19T11:28:03.691Z,31.31
2019-05-19T11:30:52.521Z,30.47
2019-05-19T11:33:34.437Z,28.99
2019-05-19T11:36:23.369Z,30.11
2019-05-19T11:39:12.295Z,30.52
2019-05-19T11:42:01.200Z,30.55
2019-05-19T11:44:50.052Z,28.83
2019-05-19T11:47:38.876Z,27.29
2019-05-19T11:50:27.793Z,28.74
2019-05-19T11:53:16.600Z,28.26
2019-05-19T11:56:07.239Z,28.96
2019-05-19T11:58:56.108Z,28.50
2019-05-19T12:01:44.968Z,27.93
2019-05-19T12:04:33.799Z,28.98
2019-05-19T12:07:22.652Z,29.01
2019-05-19T12:10:11.739Z,28.59
2019-05-19T12:13:00.644Z,27.74
2019-05-19T12:15:49.523Z,28.50
2019-05-19T12:18:38.367Z,26.79
2019-05-19T12:21:27.237Z,26.43
2019-05-19T12:24:16.068Z,27.59
2019-05-19T12:27:04.950Z,27.02
2019-05-19T12:29:53.787Z,26.15
2019-05-19T12:32:42.750Z,25.41
2019-05-19T12:35:24.982Z,25.71
2019-05-19T12:38:13.855Z,25.48
2019-05-19T12:41:02.705Z,25.93
2019-05-19T12:43:51.539Z,25.58
2019-05-19T12:46:40.469Z,25.31
2019-05-19T12:49:29.364Z,25.40
2019-05-19T12:52:18.243Z,25.97
2019-05-19T12:55:07.738Z,25.94
2019-05-19T12:57:56.553Z,25.46
2019-05-19T13:00:45.465Z,26.01
2019-05-19T13:03:34.450Z,25.97
2019-05-19T13:06:23.273Z,26.02
2019-05-19T13:12:08.028Z,26.35
2019-05-19T13:14:56.929Z,26.53
2019-05-19T13:17:45.745Z,26.60
2019-05-19T13:20:34.592Z,26.80
2019-05-19T13:23:23.428Z,27.17
2019-05-19T13:26:12.285Z,27.48
2019-05-19T13:29:01.091Z,27.41
2019-05-19T13:31:49.939Z,27.51
2019-05-19T13:34:31.838Z,25.86
2019-05-19T13:37:20.665Z,24.54
2019-05-19T13:40:09.661Z,22.43
2019-05-19T13:42:58.521Z,22.50
2019-05-19T13:45:28.073Z,21.69
2019-05-19T13:48:16.906Z,21.44
2019-05-19T13:51:05.739Z,21.30
2019-05-19T13:53:54.596Z,20.94
2019-05-19T13:56:24.409Z,20.56
2019-05-19T13:59:13.323Z,20.04
2019-05-19T14:02:02.208Z,19.57
2019-05-19T14:04:51.069Z,19.41
2019-05-19T14:07:39.904Z,19.05
2019-05-19T14:10:28.775Z,19.02
2019-05-19T14:13:17.779Z,19.22
2019-05-19T14:16:06.606Z,19.17
2019-05-19T14:18:55.407Z,18.90
2019-05-19T14:21:25.047Z,18.73
2019-05-19T14:24:13.882Z,18.58
2019-05-19T14:27:02.822Z,18.16
2019-05-19T14:29:51.831Z,17.93
2019-05-19T14:32:40.687Z,17.98
2019-05-19T14:35:22.233Z,18.00
2019-05-19T14:38:11.062Z,17.99
2019-05-19T14:40:59.979Z,18.15
2019-05-19T14:43:48.825Z,18.15
2019-05-19T14:46:37.711Z,17.74
2019-05-19T14:49:26.560Z,17.63
2019-05-19T14:52:15.473Z,17.58
2019-05-19T14:58:19.222Z,17.56
2019-05-19T15:01:08.053Z,17.60
2019-05-19T15:03:56.981Z,17.59
2019-05-19T15:06:45.816Z,17.74
2019-05-19T15:09:34.727Z,17.64
2019-05-19T15:12:23.559Z,17.58
2019-05-19T15:15:12.908Z,17.43
2019-05-19T15:18:01.818Z,17.51
2019-05-19T15:20:50.687Z,17.53
2019-05-19T15:23:39.590Z,17.17
2019-05-19T15:26:28.449Z,17.13
2019-05-19T15:29:17.330Z,16.98
2019-05-19T15:32:06.322Z,16.79
2019-05-19T15:34:48.432Z,16.74
2019-05-19T15:37:37.294Z,16.70
2019-05-19T15:40:26.232Z,16.65
2019-05-19T15:43:15.055Z,16.66
2019-05-19T15:46:03.912Z,16.62
2019-05-19T15:48:52.734Z,16.48
2019-05-19T15:51:58.254Z,16.35
2019-05-19T15:54:32.473Z,16.25
2019-05-19T15:57:21.303Z,16.22
2019-05-19T16:00:10.534Z,16.25
2019-05-19T16:02:59.521Z,16.10
2019-05-19T16:05:48.363Z,16.15
2019-05-19T16:08:37.207Z,16.09
2019-05-19T16:11:26.129Z,16.12
2019-05-19T16:14:15.113Z,16.19
2019-05-19T16:17:04.075Z,16.24
2019-05-19T16:19:52.953Z,16.50
2019-05-19T16:22:41.794Z,16.48
2019-05-19T16:25:30.664Z,16.39
2019-05-19T16:28:30.343Z,16.44
2019-05-19T16:31:10.158Z,16.68
2019-05-19T16:33:58.995Z,16.72
2019-05-19T16:36:40.559Z,17.13
2019-05-19T16:39:29.477Z,16.88
2019-05-19T16:42:18.422Z,16.99
2019-05-19T16:48:36.334Z,17.04
2019-05-19T16:51:25.237Z,16.99
2019-05-19T16:57:10.041Z,17.20
2019-05-19T16:59:58.909Z,17.08
2019-05-19T17:02:47.769Z,16.92
2019-05-19T17:05:36.633Z,16.82
2019-05-19T17:08:25.580Z,16.93
2019-05-19T17:11:18.491Z,16.77
2019-05-19T17:14:05.127Z,16.71
2019-05-19T17:16:53.985Z,16.68
2019-05-19T17:19:42.912Z,16.65
2019-05-19T17:22:31.779Z,16.84
2019-05-19T17:25:20.617Z,16.45
2019-05-19T17:28:09.471Z,16.29
2019-05-19T17:30:58.310Z,16.20
2019-05-19T17:33:47.200Z,15.91
2019-05-19T17:36:29.349Z,15.83
2019-05-19T17:39:18.214Z,16.02
2019-05-19T17:42:07.026Z,16.07
2019-05-19T17:44:55.944Z,16.11
2019-05-19T17:47:44.780Z,15.99
2019-05-19T17:53:49.575Z,16.16
2019-05-19T17:59:53.458Z,15.92
2019-05-19T18:02:42.310Z,15.80
2019-05-19T18:05:11.970Z,15.73
2019-05-19T18:08:00.966Z,15.71
2019-05-19T18:10:49.905Z,15.68
2019-05-19T18:13:38.920Z,15.68
2019-05-19T18:16:27.858Z,15.62
2019-05-19T18:19:16.703Z,15.49
2019-05-19T18:22:05.614Z,15.40
2019-05-19T18:24:54.488Z,15.32
2019-05-19T18:27:43.396Z,15.29
2019-05-19T18:30:32.325Z,15.32
2019-05-19T18:33:21.241Z,15.32
2019-05-19T18:36:10.260Z,15.28
2019-05-19T18:38:59.101Z,15.27
2019-05-19T18:41:47.955Z,15.23
2019-05-19T18:44:36.874Z,15.23
2019-05-19T18:47:06.411Z,15.14
2019-05-19T18:49:55.274Z,15.10
2019-05-19T18:52:44.134Z,15.12
2019-05-19T18:55:33.080Z,15.11
2019-05-19T18:58:21.931Z,15.07
2019-05-19T19:01:10.785Z,15.06
2019-05-19T19:03:59.629Z,15.08
2019-05-19T19:06:48.566Z,15.24
2019-05-19T19:09:37.492Z,15.31
2019-05-19T19:12:26.412Z,15.41
2019-05-19T19:15:15.417Z,15.53
2019-05-19T19:18:04.360Z,15.79
2019-05-19T19:20:53.202Z,15.53
2019-05-19T19:23:42.075Z,15.63
2019-05-19T19:26:31.028Z,15.46
2019-05-19T19:29:19.872Z,15.37
2019-05-19T19:32:08.839Z,15.57
2019-05-19T19:34:57.694Z,15.65
2019-05-19T19:37:40.171Z,15.57
2019-05-19T19:43:44.339Z,15.31
2019-05-19T19:46:33.238Z,15.25
2019-05-19T19:49:22.074Z,15.28
2019-05-19T19:55:25.270Z,15.33
2019-05-19T19:58:14.206Z,15.30
2019-05-19T20:01:03.115Z,15.21
2019-05-19T20:03:51.991Z,15.19
2019-05-19T20:06:40.881Z,15.31
2019-05-19T20:09:29.738Z,15.57
2019-05-19T20:12:18.604Z,15.44
2019-05-19T20:15:07.532Z,15.61
2019-05-19T20:17:56.370Z,15.41
2019-05-19T20:20:45.214Z,15.17
2019-05-19T20:23:34.098Z,15.00
2019-05-19T20:26:22.957Z,15.08
2019-05-19T20:29:11.803Z,15.01
2019-05-19T20:32:00.680Z,14.87
2019-05-19T20:34:49.534Z,14.71
2019-05-19T20:37:31.656Z,14.56
2019-05-19T20:40:20.485Z,14.38
2019-05-19T20:43:09.420Z,14.16
2019-05-19T20:45:58.257Z,13.96
2019-05-19T20:48:47.115Z,13.81
2019-05-19T20:51:36.043Z,13.67
2019-05-19T20:54:24.895Z,13.54
2019-05-19T20:57:13.766Z,13.42
2019-05-19T21:00:02.723Z,13.30
2019-05-19T21:02:51.713Z,13.25
2019-05-19T21:05:40.573Z,13.21
2019-05-19T21:08:29.435Z,13.14
2019-05-19T21:11:18.375Z,13.16
2019-05-19T21:14:07.207Z,13.11
2019-05-19T21:16:56.079Z,13.14
2019-05-19T21:19:44.946Z,13.15
2019-05-19T21:22:40.771Z,13.14
2019-05-19T21:25:29.596Z,13.11
2019-05-19T21:28:18.631Z,13.01
2019-05-19T21:31:07.563Z,13.06
2019-05-19T21:33:56.423Z,13.06
2019-05-19T21:36:45.263Z,12.98
2019-05-19T21:39:26.847Z,13.03
2019-05-19T21:42:15.665Z,13.08
2019-05-19T21:51:14.973Z,13.10
2019-05-19T21:54:03.829Z,12.94
2019-05-19T21:56:52.693Z,12.79
2019-05-19T21:59:41.533Z,12.70
2019-05-19T22:02:30.402Z,12.61
2019-05-19T22:05:19.310Z,12.56
2019-05-19T22:08:27.197Z,12.52
2019-05-19T22:11:16.095Z,12.42
2019-05-19T22:14:04.951Z,12.36
2019-05-19T22:16:53.786Z,12.32
2019-05-19T22:19:42.647Z,12.25
2019-05-19T22:22:31.496Z,12.26
2019-05-19T22:25:20.352Z,12.24
2019-05-19T22:28:09.152Z,12.18
2019-05-19T22:30:58.019Z,12.16
2019-05-19T22:33:46.870Z,12.12
2019-05-19T22:36:35.726Z,12.18
2019-05-19T22:39:17.426Z,12.17
2019-05-19T22:42:06.248Z,12.24
2019-05-19T22:44:55.091Z,12.26
2019-05-19T22:47:43.989Z,12.19
2019-05-19T22:50:32.858Z,12.06
2019-05-19T22:53:21.706Z,12.11
2019-05-19T22:56:10.584Z,12.14
2019-05-19T22:58:59.437Z,12.17
2019-05-19T23:01:51.646Z,12.05
2019-05-19T23:04:38.842Z,11.93
2019-05-19T23:07:27.719Z,11.84
2019-05-19T23:13:44.949Z,12.00
2019-05-19T23:16:33.786Z,11.86
2019-05-19T23:19:22.635Z,11.80
2019-05-19T23:22:11.469Z,11.94
2019-05-19T23:25:00.333Z,11.83
2019-05-19T23:27:49.186Z,11.78
2019-05-19T23:30:38.046Z,11.75
2019-05-19T23:33:26.914Z,11.74
2019-05-19T23:36:15.743Z,11.68
2019-05-19T23:38:57.977Z,11.70
2019-05-19T23:41:46.795Z,11.64
2019-05-19T23:44:35.636Z,11.60
2019-05-19T23:47:24.615Z,11.53
2019-05-19T23:50:14.161Z,11.51
2019-05-19T23:53:03.019Z,11.46
2019-05-19T23:55:51.837Z,11.53
2019-05-19T23:58:40.699Z,11.49
